La rose des vents
Donnes mto: Semaine 11/07/22 - 17/07/22 (S 28)
Date Horaire Temp. E. Hum. E. P.atmo. Pluie Vent 1mn Direction Ensoleilleme Ev.Tr. Solaire P. de rose Temp au vent Rafales
11/07/2022 00:00 22,5 C 78 % 1015,0 hPa 0,0 mm 0,0 km/h (0 Bft) N 0,00 h 0,025 mm 0 W/m 18,5 C 22,5 C 0,0 km/h (0 Bft)
11/07/2022 01:00 22,1 C 79 % 1015,0 hPa 0,0 mm 0,0 km/h (0 Bft) N 0,00 h 0,025 mm 0 W/m 18,3 C 22,1 C 0,0 km/h (0 Bft)
11/07/2022 02:00 21,9 C 78 % 1014,9 hPa 0,0 mm 0,0 km/h (0 Bft) N 0,00 h 0,025 mm 0 W/m 17,8 C 21,9 C 0,0 km/h (0 Bft)
11/07/2022 03:00 21,8 C 77 % 1014,8 hPa 0,0 mm 0,0 km/h (0 Bft) N 0,00 h 0,025 mm 0 W/m 17,6 C 21,8 C 0,0 km/h (0 Bft)
11/07/2022 04:00 21,4 C 79 % 1014,8 hPa 0,0 mm 0,0 km/h (0 Bft) N 0,00 h 0,025 mm 0 W/m 17,7 C 21,4 C 0,0 km/h (0 Bft)
11/07/2022 05:00 21,0 C 81 % 1014,9 hPa 0,0 mm 0,0 km/h (0 Bft) N 0,00 h 0,025 mm 0 W/m 17,6 C 21,0 C 0,0 km/h (0 Bft)
11/07/2022 06:00 20,5 C 84 % 1015,1 hPa 0,0 mm 0,0 km/h (0 Bft) N 0,00 h 0,000 mm 13 W/m 17,7 C 20,5 C 0,0 km/h (0 Bft)
11/07/2022 07:00 21,4 C 86 % 1015,6 hPa 0,0 mm 0,0 km/h (0 Bft) N 0,00 h 0,000 mm 30 W/m 18,9 C 21,4 C 0,0 km/h (0 Bft)
11/07/2022 08:00 23,5 C 85 % 1015,8 hPa 0,0 mm 0,2 km/h (0 Bft) SE 0,02 h 0,025 mm 94 W/m 20,7 C 23,5 C 0,6 km/h (0 Bft)
11/07/2022 09:00 26,5 C 70 % 1015,9 hPa 0,0 mm 0,9 km/h (0 Bft) SE 0,98 h 0,076 mm 453 W/m 20,6 C 26,5 C 3,1 km/h (1 Bft)
11/07/2022 10:00 29,0 C 65 % 1016,1 hPa 0,0 mm 3,4 km/h (1 Bft) E-SE 1,00 h 0,305 mm 596 W/m 21,6 C 29,0 C 8,1 km/h (2 Bft)
11/07/2022 11:00 29,7 C 59 % 1016,3 hPa 0,0 mm 4,8 km/h (1 Bft) E 1,00 h 0,406 mm 710 W/m 20,9 C 29,7 C 10,6 km/h (2 Bft)
11/07/2022 12:00 30,0 C 57 % 1016,5 hPa 0,0 mm 5,2 km/h (1 Bft) E 1,00 h 0,508 mm 783 W/m 20,4 C 30,0 C 11,9 km/h (2 Bft)
11/07/2022 13:00 30,3 C 54 % 1016,7 hPa 0,0 mm 5,0 km/h (1 Bft) E 1,00 h 0,559 mm 810 W/m 20,0 C 30,3 C 10,9 km/h (2 Bft)
11/07/2022 14:00 31,1 C 48 % 1016,4 hPa 0,0 mm 4,4 km/h (1 Bft) E 1,00 h 0,584 mm 796 W/m 18,7 C 31,1 C 10,5 km/h (2 Bft)
11/07/2022 15:00 31,5 C 40 % 1016,4 hPa 0,0 mm 5,0 km/h (1 Bft) S 1,00 h 0,584 mm 741 W/m 16,1 C 31,5 C 10,4 km/h (2 Bft)
11/07/2022 16:00 30,8 C 45 % 1016,4 hPa 0,0 mm 4,2 km/h (1 Bft) S 1,00 h 0,559 mm 628 W/m 17,4 C 30,8 C 8,6 km/h (2 Bft)
11/07/2022 17:00 30,4 C 48 % 1016,1 hPa 0,0 mm 3,5 km/h (1 Bft) S-SE 1,00 h 0,457 mm 489 W/m 18,2 C 30,4 C 7,9 km/h (2 Bft)
11/07/2022 18:00 29,6 C 54 % 1016,0 hPa 0,0 mm 2,9 km/h (1 Bft) S-SE 1,00 h 0,356 mm 338 W/m 19,4 C 29,6 C 7,2 km/h (2 Bft)
11/07/2022 19:00 28,0 C 60 % 1016,0 hPa 0,0 mm 0,9 km/h (0 Bft) S-SE 0,90 h 0,254 mm 175 W/m 19,6 C 28,0 C 3,4 km/h (1 Bft)
11/07/2022 20:00 26,4 C 62 % 1016,0 hPa 0,0 mm 0,2 km/h (0 Bft) S-SE 0,00 h 0,127 mm 29 W/m 18,6 C 26,4 C 0,7 km/h (0 Bft)
11/07/2022 21:00 24,7 C 72 % 1016,2 hPa 0,0 mm 0,0 km/h (0 Bft) N 0,02 h 0,025 mm 7 W/m 19,3 C 24,7 C 0,0 km/h (0 Bft)
11/07/2022 22:00 23,6 C 78 % 1016,6 hPa 0,0 mm 0,0 km/h (0 Bft) N 0,00 h 0,000 mm 0 W/m 19,5 C 23,6 C 0,0 km/h (0 Bft)
11/07/2022 23:00 22,7 C 81 % 1017,0 hPa 0,0 mm 0,0 km/h (0 Bft) N 0,00 h 0,025 mm 0 W/m 19,3 C 22,7 C 0,0 km/h (0 Bft)
12/07/2022 00:00 22,2 C 83 % 1017,4 hPa 0,0 mm 0,0 km/h (0 Bft) N 0,00 h 0,025 mm 0 W/m 19,2 C 22,2 C 0,0 km/h (0 Bft)
12/07/2022 01:00 21,8 C 83 % 1017,4 hPa 0,0 mm 0,0 km/h (0 Bft) N 0,00 h 0,025 mm 0 W/m 18,8 C 21,8 C 0,0 km/h (0 Bft)
12/07/2022 02:00 21,3 C 85 % 1017,4 hPa 0,0 mm 0,0 km/h (0 Bft) N 0,00 h 0,025 mm 0 W/m 18,6 C 21,3 C 0,0 km/h (0 Bft)
12/07/2022 03:00 21,0 C 88 % 1017,4 hPa 0,0 mm 0,0 km/h (0 Bft) N 0,00 h 0,025 mm 0 W/m 18,9 C 21,0 C 0,0 km/h (0 Bft)
12/07/2022 04:00 20,9 C 90 % 1017,5 hPa 0,0 mm 0,0 km/h (0 Bft) N 0,00 h 0,000 mm 0 W/m 19,1 C 20,9 C 0,0 km/h (0 Bft)
12/07/2022 05:00 20,8 C 88 % 1017,5 hPa 0,0 mm 0,0 km/h (0 Bft) N 0,00 h 0,000 mm 0 W/m 18,8 C 20,8 C 0,0 km/h (0 Bft)
12/07/2022 06:00 20,7 C 88 % 1017,7 hPa 0,0 mm 0,0 km/h (0 Bft) N 0,00 h 0,000 mm 15 W/m 18,6 C 20,7 C 0,0 km/h (0 Bft)
12/07/2022 07:00 21,2 C 86 % 1018,3 hPa 0,0 mm 0,0 km/h (0 Bft) N 0,00 h 0,000 mm 29 W/m 18,8 C 21,2 C 0,0 km/h (0 Bft)
12/07/2022 08:00 23,0 C 80 % 1018,6 hPa 0,0 mm 0,0 km/h (0 Bft) N 0,02 h 0,025 mm 89 W/m 19,4 C 23,0 C 0,0 km/h (0 Bft)
12/07/2022 09:00 26,2 C 70 % 1018,6 hPa 0,0 mm 1,1 km/h (1 Bft) SE 0,97 h 0,051 mm 457 W/m 20,3 C 26,2 C 2,9 km/h (1 Bft)
12/07/2022 10:00 28,3 C 63 % 1018,7 hPa 0,0 mm 2,7 km/h (1 Bft) E-SE 1,00 h 0,305 mm 605 W/m 20,7 C 28,3 C 7,0 km/h (2 Bft)
12/07/2022 11:00 28,9 C 62 % 1019,1 hPa 0,0 mm 3,0 km/h (1 Bft) E 1,00 h 0,406 mm 716 W/m 21,0 C 28,9 C 7,9 km/h (2 Bft)
12/07/2022 12:00 29,6 C 60 % 1019,3 hPa 0,0 mm 3,9 km/h (1 Bft) E 1,00 h 0,483 mm 795 W/m 21,0 C 29,6 C 10,0 km/h (2 Bft)
12/07/2022 13:00 29,9 C 56 % 1019,5 hPa 0,0 mm 3,6 km/h (1 Bft) E 1,00 h 0,559 mm 824 W/m 20,2 C 29,9 C 9,6 km/h (2 Bft)
12/07/2022 14:00 29,7 C 57 % 1019,2 hPa 0,0 mm 3,5 km/h (1 Bft) E 1,00 h 0,584 mm 803 W/m 20,2 C 29,7 C 9,1 km/h (2 Bft)
12/07/2022 15:00 29,8 C 59 % 1019,1 hPa 0,0 mm 4,2 km/h (1 Bft) E 1,00 h 0,559 mm 733 W/m 20,8 C 29,8 C 10,2 km/h (2 Bft)
12/07/2022 16:00 29,8 C 58 % 1018,7 hPa 0,0 mm 2,6 km/h (1 Bft) E 1,00 h 0,508 mm 624 W/m 20,7 C 29,8 C 7,3 km/h (2 Bft)
12/07/2022 17:00 29,8 C 59 % 1018,3 hPa 0,0 mm 2,4 km/h (1 Bft) E 1,00 h 0,432 mm 487 W/m 21,0 C 29,8 C 6,6 km/h (2 Bft)
12/07/2022 18:00 29,1 C 62 % 1018,0 hPa 0,0 mm 0,9 km/h (0 Bft) E 0,98 h 0,356 mm 332 W/m 21,0 C 29,1 C 3,6 km/h (1 Bft)
12/07/2022 19:00 27,3 C 66 % 1017,9 hPa 0,0 mm 0,1 km/h (0 Bft) E 0,17 h 0,229 mm 96 W/m 20,4 C 27,3 C 0,8 km/h (0 Bft)
12/07/2022 20:00 25,7 C 72 % 1018,0 hPa 0,0 mm 0,0 km/h (0 Bft) N 0,00 h 0,076 mm 30 W/m 20,3 C 25,7 C 0,0 km/h (0 Bft)
12/07/2022 21:00 24,6 C 77 % 1018,1 hPa 0,0 mm 0,0 km/h (0 Bft) N 0,03 h 0,025 mm 7 W/m 20,3 C 24,6 C 0,0 km/h (0 Bft)
12/07/2022 22:00 23,6 C 81 % 1018,6 hPa 0,0 mm 0,0 km/h (0 Bft) N 0,00 h 0,000 mm 0 W/m 20,2 C 23,6 C 0,0 km/h (0 Bft)
12/07/2022 23:00 22,9 C 83 % 1019,0 hPa 0,0 mm 0,0 km/h (0 Bft) N 0,00 h 0,025 mm 0 W/m 19,9 C 22,9 C 0,0 km/h (0 Bft)
13/07/2022 00:00 22,4 C 85 % 1019,3 hPa 0,0 mm 0,0 km/h (0 Bft) N 0,00 h 0,025 mm 0 W/m 19,7 C 22,4 C 0,0 km/h (0 Bft)
13/07/2022 01:00 22,0 C 87 % 1019,6 hPa 0,0 mm 0,0 km/h (0 Bft) N 0,00 h 0,025 mm 0 W/m 19,7 C 22,0 C 0,0 km/h (0 Bft)
13/07/2022 02:00 21,8 C 86 % 1019,5 hPa 0,0 mm 0,0 km/h (0 Bft) N 0,00 h 0,025 mm 0 W/m 19,4 C 21,8 C 0,0 km/h (0 Bft)
13/07/2022 03:00 21,6 C 84 % 1019,6 hPa 0,0 mm 0,0 km/h (0 Bft) N 0,00 h 0,025 mm 0 W/m 18,9 C 21,6 C 0,0 km/h (0 Bft)
13/07/2022 04:00 21,5 C 84 % 1019,6 hPa 0,0 mm 0,0 km/h (0 Bft) N 0,00 h 0,025 mm 0 W/m 18,6 C 21,5 C 0,0 km/h (0 Bft)
13/07/2022 05:00 21,1 C 84 % 1019,6 hPa 0,0 mm 0,0 km/h (0 Bft) N 0,00 h 0,025 mm 0 W/m 18,2 C 21,1 C 0,0 km/h (0 Bft)
13/07/2022 06:00 21,1 C 82 % 1019,8 hPa 0,0 mm 0,0 km/h (0 Bft) N 0,02 h 0,000 mm 17 W/m 17,9 C 21,1 C 0,0 km/h (0 Bft)
13/07/2022 07:00 22,2 C 78 % 1020,0 hPa 0,0 mm 0,0 km/h (0 Bft) N 0,00 h 0,025 mm 48 W/m 18,3 C 22,2 C 0,0 km/h (0 Bft)
13/07/2022 08:00 24,2 C 72 % 1020,5 hPa 0,0 mm 0,0 km/h (0 Bft) N 0,03 h 0,025 mm 103 W/m 18,9 C 24,2 C 0,2 km/h (0 Bft)
13/07/2022 09:00 27,8 C 59 % 1021,0 hPa 0,0 mm 0,7 km/h (0 Bft) E 0,97 h 0,076 mm 431 W/m 18,8 C 27,8 C 1,9 km/h (1 Bft)
13/07/2022 10:00 31,0 C 47 % 1021,1 hPa 0,0 mm 1,0 km/h (0 Bft) N-NE 0,98 h 0,279 mm 564 W/m 18,2 C 31,0 C 4,2 km/h (1 Bft)
13/07/2022 11:00 32,3 C 45 % 1021,2 hPa 0,0 mm 1,5 km/h (1 Bft) E 1,00 h 0,381 mm 696 W/m 18,7 C 32,3 C 4,6 km/h (1 Bft)
13/07/2022 12:00 32,1 C 46 % 1021,6 hPa 0,0 mm 3,0 km/h (1 Bft) E 1,00 h 0,508 mm 769 W/m 19,0 C 32,1 C 8,2 km/h (2 Bft)
13/07/2022 13:00 32,5 C 45 % 1021,6 hPa 0,0 mm 3,8 km/h (1 Bft) E 1,00 h 0,559 mm 797 W/m 18,8 C 32,5 C 8,8 km/h (2 Bft)
13/07/2022 14:00 32,4 C 46 % 1021,3 hPa 0,0 mm 3,8 km/h (1 Bft) E 1,00 h 0,584 mm 780 W/m 19,1 C 32,4 C 8,6 km/h (2 Bft)
13/07/2022 15:00 32,4 C 49 % 1021,1 hPa 0,0 mm 2,9 km/h (1 Bft) E 1,00 h 0,584 mm 711 W/m 20,2 C 32,4 C 7,4 km/h (2 Bft)
13/07/2022 16:00 32,3 C 51 % 1020,9 hPa 0,0 mm 2,4 km/h (1 Bft) E 1,00 h 0,508 mm 603 W/m 20,8 C 32,3 C 6,3 km/h (2 Bft)
13/07/2022 17:00 31,6 C 49 % 1020,5 hPa 0,0 mm 1,2 km/h (1 Bft) E 0,82 h 0,432 mm 416 W/m 19,6 C 31,6 C 3,9 km/h (1 Bft)
13/07/2022 18:00 31,2 C 46 % 1020,1 hPa 0,0 mm 0,3 km/h (0 Bft) E 0,88 h 0,305 mm 286 W/m 18,3 C 31,2 C 1,6 km/h (1 Bft)
13/07/2022 19:00 30,9 C 47 % 1019,9 hPa 0,0 mm 0,1 km/h (0 Bft) E 0,80 h 0,203 mm 155 W/m 18,4 C 30,9 C 0,6 km/h (0 Bft)
13/07/2022 20:00 29,5 C 51 % 1019,8 hPa 0,0 mm 0,0 km/h (0 Bft) N 0,00 h 0,127 mm 32 W/m 18,3 C 29,5 C 0,2 km/h (0 Bft)
13/07/2022 21:00 28,0 C 67 % 1019,6 hPa 0,0 mm 0,0 km/h (0 Bft) N 0,02 h 0,025 mm 6 W/m 21,2 C 28,0 C 0,0 km/h (0 Bft)
13/07/2022 22:00 26,4 C 62 % 1019,9 hPa 0,0 mm 0,0 km/h (0 Bft) N 0,00 h 0,000 mm 0 W/m 18,5 C 26,4 C 0,0 km/h (0 Bft)
13/07/2022 23:00 25,6 C 64 % 1019,9 hPa 0,0 mm 0,0 km/h (0 Bft) N 0,00 h 0,051 mm 0 W/m 18,4 C 25,6 C 0,0 km/h (0 Bft)
14/07/2022 00:00 24,9 C 68 % 1019,9 hPa 0,0 mm 0,0 km/h (0 Bft) N 0,00 h 0,051 mm 0 W/m 18,5 C 24,9 C 0,0 km/h (0 Bft)
14/07/2022 01:00 24,3 C 70 % 1019,9 hPa 0,0 mm 0,0 km/h (0 Bft) N 0,00 h 0,025 mm 0 W/m 18,4 C 24,3 C 0,0 km/h (0 Bft)
14/07/2022 02:00 24,2 C 68 % 1019,7 hPa 0,0 mm 0,0 km/h (0 Bft) N 0,00 h 0,025 mm 0 W/m 17,9 C 24,2 C 0,0 km/h (0 Bft)
14/07/2022 03:00 23,7 C 67 % 1019,5 hPa 0,0 mm 0,0 km/h (0 Bft) N 0,00 h 0,025 mm 0 W/m 17,2 C 23,7 C 0,0 km/h (0 Bft)
14/07/2022 04:00 23,3 C 67 % 1019,1 hPa 0,0 mm 0,0 km/h (0 Bft) N 0,00 h 0,025 mm 0 W/m 16,9 C 23,3 C 0,0 km/h (0 Bft)
14/07/2022 05:00 23,3 C 67 % 1019,2 hPa 0,0 mm 0,0 km/h (0 Bft) N 0,00 h 0,025 mm 0 W/m 16,7 C 23,3 C 0,0 km/h (0 Bft)
14/07/2022 06:00 23,3 C 67 % 1019,3 hPa 0,0 mm 0,0 km/h (0 Bft) N 0,00 h 0,000 mm 16 W/m 16,7 C 23,3 C 0,0 km/h (0 Bft)
14/07/2022 07:00 24,2 C 64 % 1019,3 hPa 0,0 mm 0,0 km/h (0 Bft) N 0,00 h 0,025 mm 37 W/m 17,0 C 24,2 C 0,0 km/h (0 Bft)
14/07/2022 08:00 26,2 C 60 % 1019,2 hPa 0,0 mm 0,0 km/h (0 Bft) N 0,03 h 0,025 mm 90 W/m 17,8 C 26,2 C 0,1 km/h (0 Bft)
14/07/2022 09:00 29,7 C 50 % 1018,9 hPa 0,0 mm 1,1 km/h (0 Bft) E 0,97 h 0,076 mm 436 W/m 18,3 C 29,7 C 3,4 km/h (1 Bft)
14/07/2022 10:00 31,3 C 53 % 1018,8 hPa 0,0 mm 4,7 km/h (1 Bft) E 1,00 h 0,305 mm 580 W/m 20,5 C 31,3 C 9,1 km/h (2 Bft)
14/07/2022 11:00 31,4 C 55 % 1018,8 hPa 0,0 mm 5,1 km/h (1 Bft) E 1,00 h 0,432 mm 691 W/m 21,3 C 31,4 C 10,7 km/h (2 Bft)
14/07/2022 12:00 32,3 C 51 % 1018,8 hPa 0,0 mm 4,9 km/h (1 Bft) E 1,00 h 0,508 mm 761 W/m 20,7 C 32,3 C 11,3 km/h (2 Bft)
14/07/2022 13:00 33,4 C 47 % 1018,4 hPa 0,0 mm 4,9 km/h (1 Bft) E 0,97 h 0,559 mm 785 W/m 20,6 C 33,4 C 11,0 km/h (2 Bft)
14/07/2022 14:00 33,7 C 41 % 1018,3 hPa 0,0 mm 5,6 km/h (1 Bft) S 1,00 h 0,584 mm 777 W/m 18,7 C 33,7 C 11,3 km/h (2 Bft)
14/07/2022 15:00 32,8 C 43 % 1018,0 hPa 0,0 mm 5,1 km/h (1 Bft) S 1,00 h 0,610 mm 727 W/m 18,7 C 32,8 C 10,8 km/h (2 Bft)
14/07/2022 16:00 32,5 C 43 % 1018,1 hPa 0,0 mm 2,3 km/h (1 Bft) E-SE 0,13 h 0,559 mm 348 W/m 18,3 C 32,5 C 6,6 km/h (2 Bft)
14/07/2022 17:00 31,3 C 48 % 1017,8 hPa 0,0 mm 1,4 km/h (1 Bft) E-SE 0,68 h 0,305 mm 427 W/m 18,8 C 31,3 C 4,6 km/h (1 Bft)
14/07/2022 18:00 31,6 C 49 % 1017,2 hPa 0,0 mm 1,0 km/h (0 Bft) E-SE 1,00 h 0,305 mm 330 W/m 19,6 C 31,6 C 3,6 km/h (1 Bft)
14/07/2022 19:00 29,9 C 54 % 1016,4 hPa 0,0 mm 1,8 km/h (1 Bft) S 0,90 h 0,229 mm 166 W/m 19,4 C 29,9 C 4,5 km/h (1 Bft)
14/07/2022 20:00 28,6 C 49 % 1016,1 hPa 0,0 mm 0,3 km/h (0 Bft) S 0,02 h 0,127 mm 31 W/m 16,6 C 28,6 C 0,9 km/h (0 Bft)
14/07/2022 21:00 27,2 C 60 % 1016,1 hPa 0,0 mm 0,0 km/h (0 Bft) N 0,03 h 0,025 mm 7 W/m 18,5 C 27,2 C 0,0 km/h (0 Bft)
14/07/2022 22:00 25,6 C 73 % 1016,2 hPa 0,0 mm 0,0 km/h (0 Bft) N 0,00 h 0,000 mm 0 W/m 20,5 C 25,6 C 0,0 km/h (0 Bft)
14/07/2022 23:00 24,2 C 77 % 1016,1 hPa 0,0 mm 0,0 km/h (0 Bft) N 0,00 h 0,025 mm 0 W/m 19,8 C 24,2 C 0,0 km/h (0 Bft)
15/07/2022 00:00 23,5 C 84 % 1015,7 hPa 0,0 mm 0,0 km/h (0 Bft) N 0,00 h 0,025 mm 0 W/m 20,5 C 23,5 C 0,0 km/h (0 Bft)
15/07/2022 01:00 23,0 C 86 % 1015,2 hPa 0,0 mm 0,0 km/h (0 Bft) N 0,00 h 0,025 mm 0 W/m 20,5 C 23,0 C 0,0 km/h (0 Bft)
15/07/2022 02:00 22,5 C 83 % 1014,6 hPa 0,0 mm 0,0 km/h (0 Bft) N 0,00 h 0,025 mm 0 W/m 19,5 C 22,5 C 0,0 km/h (0 Bft)
15/07/2022 03:00 22,1 C 83 % 1014,2 hPa 0,0 mm 0,0 km/h (0 Bft) N 0,00 h 0,025 mm 0 W/m 19,2 C 22,1 C 0,0 km/h (0 Bft)
15/07/2022 04:00 21,6 C 79 % 1014,1 hPa 0,0 mm 0,0 km/h (0 Bft) N 0,00 h 0,025 mm 0 W/m 17,8 C 21,6 C 0,0 km/h (0 Bft)
15/07/2022 05:00 21,7 C 79 % 1013,7 hPa 0,0 mm 0,0 km/h (0 Bft) N 0,00 h 0,025 mm 0 W/m 17,9 C 21,7 C 0,0 km/h (0 Bft)
15/07/2022 06:00 21,7 C 83 % 1013,8 hPa 0,0 mm 0,0 km/h (0 Bft) N 0,00 h 0,000 mm 14 W/m 18,7 C 21,7 C 0,0 km/h (0 Bft)
15/07/2022 07:00 22,3 C 79 % 1013,7 hPa 0,0 mm 0,0 km/h (0 Bft) N 0,00 h 0,000 mm 32 W/m 18,4 C 22,3 C 0,0 km/h (0 Bft)
15/07/2022 08:00 24,2 C 78 % 1013,9 hPa 0,0 mm 0,1 km/h (0 Bft) S 0,02 h 0,025 mm 79 W/m 20,2 C 24,2 C 0,4 km/h (0 Bft)
15/07/2022 09:00 27,0 C 72 % 1013,8 hPa 0,0 mm 1,1 km/h (1 Bft) E 0,93 h 0,051 mm 432 W/m 21,5 C 27,0 C 3,6 km/h (1 Bft)
15/07/2022 10:00 28,9 C 70 % 1013,6 hPa 0,0 mm 3,0 km/h (1 Bft) E-SE 1,00 h 0,279 mm 627 W/m 22,9 C 28,9 C 7,9 km/h (2 Bft)
15/07/2022 11:00 29,7 C 68 % 1013,8 hPa 0,0 mm 4,3 km/h (1 Bft) E 1,00 h 0,432 mm 746 W/m 23,2 C 29,7 C 10,1 km/h (2 Bft)
15/07/2022 12:00 30,6 C 67 % 1014,0 hPa 0,0 mm 3,2 km/h (1 Bft) E 0,97 h 0,508 mm 833 W/m 23,7 C 30,6 C 8,8 km/h (2 Bft)
15/07/2022 13:00 31,9 C 61 % 1013,9 hPa 0,0 mm 2,0 km/h (1 Bft) E 0,97 h 0,508 mm 802 W/m 23,4 C 31,9 C 7,2 km/h (2 Bft)
15/07/2022 14:00 32,1 C 56 % 1013,7 hPa 0,0 mm 1,7 km/h (1 Bft) E 1,00 h 0,559 mm 797 W/m 22,3 C 32,1 C 6,4 km/h (2 Bft)
15/07/2022 15:00 31,7 C 56 % 1013,6 hPa 0,0 mm 2,1 km/h (1 Bft) E 1,00 h 0,559 mm 729 W/m 21,7 C 31,7 C 7,5 km/h (2 Bft)
15/07/2022 16:00 31,7 C 53 % 1013,6 hPa 0,0 mm 1,4 km/h (1 Bft) E 1,00 h 0,508 mm 617 W/m 21,0 C 31,7 C 5,1 km/h (1 Bft)
15/07/2022 17:00 31,2 C 55 % 1013,4 hPa 0,0 mm 1,2 km/h (1 Bft) E 1,00 h 0,432 mm 478 W/m 20,9 C 31,2 C 4,1 km/h (1 Bft)
15/07/2022 18:00 30,6 C 60 % 1013,0 hPa 0,0 mm 0,5 km/h (0 Bft) E 1,00 h 0,330 mm 320 W/m 21,9 C 30,6 C 2,3 km/h (1 Bft)
15/07/2022 19:00 29,1 C 64 % 1012,8 hPa 0,0 mm 0,0 km/h (0 Bft) NE 0,83 h 0,229 mm 162 W/m 21,5 C 29,1 C 0,6 km/h (0 Bft)
15/07/2022 20:00 27,0 C 75 % 1012,7 hPa 0,0 mm 0,0 km/h (0 Bft) N 0,05 h 0,102 mm 26 W/m 22,1 C 27,0 C 0,0 km/h (0 Bft)
15/07/2022 21:00 25,5 C 83 % 1012,8 hPa 0,0 mm 0,0 km/h (0 Bft) N 0,02 h 0,025 mm 8 W/m 22,4 C 25,5 C 0,0 km/h (0 Bft)
15/07/2022 22:00 24,5 C 87 % 1013,2 hPa 0,0 mm 0,0 km/h (0 Bft) N 0,00 h 0,000 mm 0 W/m 22,3 C 24,5 C 0,0 km/h (0 Bft)
15/07/2022 23:00 23,8 C 89 % 1013,4 hPa 0,0 mm 0,0 km/h (0 Bft) N 0,00 h 0,025 mm 0 W/m 21,9 C 23,8 C 0,0 km/h (0 Bft)
16/07/2022 00:00 23,4 C 90 % 1013,6 hPa 0,0 mm 0,0 km/h (0 Bft) N 0,00 h 0,000 mm 0 W/m 21,7 C 23,4 C 0,0 km/h (0 Bft)
16/07/2022 01:00 23,1 C 90 % 1013,7 hPa 0,0 mm 0,0 km/h (0 Bft) N 0,00 h 0,000 mm 0 W/m 21,3 C 23,1 C 0,0 km/h (0 Bft)
16/07/2022 02:00 22,8 C 91 % 1013,6 hPa 0,0 mm 0,0 km/h (0 Bft) N 0,00 h 0,000 mm 0 W/m 21,2 C 22,8 C 0,0 km/h (0 Bft)
16/07/2022 03:00 22,9 C 89 % 1013,5 hPa 0,0 mm 0,0 km/h (0 Bft) N 0,00 h 0,000 mm 0 W/m 21,0 C 22,9 C 0,0 km/h (0 Bft)
16/07/2022 04:00 22,6 C 88 % 1013,4 hPa 0,0 mm 0,0 km/h (0 Bft) N 0,00 h 0,000 mm 0 W/m 20,4 C 22,6 C 0,0 km/h (0 Bft)
16/07/2022 05:00 22,4 C 87 % 1013,5 hPa 0,0 mm 0,0 km/h (0 Bft) N 0,00 h 0,025 mm 0 W/m 20,1 C 22,4 C 0,0 km/h (0 Bft)
16/07/2022 06:00 22,3 C 87 % 1013,7 hPa 0,0 mm 0,0 km/h (0 Bft) N 0,00 h 0,000 mm 17 W/m 20,1 C 22,3 C 0,0 km/h (0 Bft)
16/07/2022 07:00 22,8 C 87 % 1014,1 hPa 0,0 mm 0,0 km/h (0 Bft) N 0,00 h 0,000 mm 57 W/m 20,5 C 22,8 C 0,0 km/h (0 Bft)
16/07/2022 08:00 25,0 C 82 % 1014,3 hPa 0,0 mm 0,0 km/h (0 Bft) N 0,00 h 0,025 mm 132 W/m 21,6 C 25,0 C 0,6 km/h (0 Bft)
16/07/2022 09:00 26,9 C 75 % 1014,8 hPa 0,0 mm 0,0 km/h (0 Bft) N 0,00 h 0,076 mm 158 W/m 22,0 C 26,9 C 0,6 km/h (0 Bft)
16/07/2022 10:00 28,4 C 72 % 1015,0 hPa 0,0 mm 0,8 km/h (0 Bft) E-SE 0,07 h 0,102 mm 288 W/m 22,9 C 28,4 C 3,2 km/h (1 Bft)
16/07/2022 11:00 29,2 C 71 % 1015,3 hPa 0,0 mm 1,5 km/h (1 Bft) E 0,05 h 0,203 mm 334 W/m 23,4 C 29,2 C 6,0 km/h (2 Bft)
16/07/2022 12:00 28,3 C 76 % 1015,5 hPa 0,0 mm 1,8 km/h (1 Bft) E-SE 0,00 h 0,229 mm 209 W/m 23,6 C 28,3 C 6,7 km/h (2 Bft)
16/07/2022 13:00 28,2 C 75 % 1015,8 hPa 0,0 mm 1,8 km/h (1 Bft) E 0,02 h 0,152 mm 333 W/m 23,3 C 28,2 C 6,1 km/h (2 Bft)
16/07/2022 14:00 30,5 C 67 % 1015,7 hPa 0,0 mm 0,7 km/h (0 Bft) N-NE 0,17 h 0,229 mm 435 W/m 23,7 C 30,5 C 3,6 km/h (1 Bft)
16/07/2022 15:00 31,4 C 64 % 1015,3 hPa 0,0 mm 2,7 km/h (1 Bft) E 0,82 h 0,330 mm 601 W/m 23,8 C 31,4 C 6,8 km/h (2 Bft)
16/07/2022 16:00 30,4 C 66 % 1015,2 hPa 0,0 mm 3,4 km/h (1 Bft) E 0,95 h 0,406 mm 618 W/m 23,4 C 30,4 C 7,2 km/h (2 Bft)
16/07/2022 17:00 30,7 C 65 % 1015,0 hPa 0,0 mm 2,1 km/h (1 Bft) E 1,00 h 0,432 mm 466 W/m 23,4 C 30,7 C 5,5 km/h (1 Bft)
16/07/2022 18:00 30,0 C 66 % 1014,7 hPa 0,0 mm 1,5 km/h (1 Bft) E-SE 1,00 h 0,330 mm 311 W/m 22,9 C 30,0 C 3,5 km/h (1 Bft)
16/07/2022 19:00 28,8 C 71 % 1014,5 hPa 0,0 mm 0,3 km/h (0 Bft) E-SE 0,83 h 0,229 mm 159 W/m 23,0 C 28,8 C 1,1 km/h (1 Bft)
16/07/2022 20:00 27,4 C 77 % 1014,5 hPa 0,0 mm 0,0 km/h (0 Bft) N 0,03 h 0,102 mm 28 W/m 22,9 C 27,4 C 0,0 km/h (0 Bft)
16/07/2022 21:00 26,0 C 82 % 1014,8 hPa 0,0 mm 0,0 km/h (0 Bft) N 0,00 h 0,025 mm 7 W/m 22,6 C 26,0 C 0,0 km/h (0 Bft)
16/07/2022 22:00 25,0 C 84 % 1015,5 hPa 0,0 mm 0,0 km/h (0 Bft) N 0,00 h 0,000 mm 0 W/m 22,2 C 25,0 C 0,0 km/h (0 Bft)
16/07/2022 23:00 24,3 C 88 % 1015,8 hPa 0,0 mm 0,0 km/h (0 Bft) N 0,00 h 0,025 mm 0 W/m 22,1 C 24,3 C 0,0 km/h (0 Bft)
17/07/2022 00:00 23,9 C 90 % 1016,3 hPa 0,0 mm 0,0 km/h (0 Bft) N 0,00 h 0,025 mm 0 W/m 22,1 C 23,9 C 0,0 km/h (0 Bft)
17/07/2022 01:00 23,6 C 90 % 1016,4 hPa 0,0 mm 0,0 km/h (0 Bft) N 0,00 h 0,000 mm 0 W/m 22,0 C 23,6 C 0,0 km/h (0 Bft)
17/07/2022 02:00 23,3 C 91 % 1016,3 hPa 0,0 mm 0,0 km/h (0 Bft) N 0,00 h 0,000 mm 0 W/m 21,7 C 23,3 C 0,0 km/h (0 Bft)
17/07/2022 03:00 22,8 C 91 % 1016,3 hPa 0,0 mm 0,0 km/h (0 Bft) N 0,00 h 0,000 mm 0 W/m 21,2 C 22,8 C 0,0 km/h (0 Bft)
17/07/2022 04:00 22,7 C 91 % 1016,4 hPa 0,0 mm 0,0 km/h (0 Bft) N 0,00 h 0,000 mm 0 W/m 21,2 C 22,7 C 0,0 km/h (0 Bft)
17/07/2022 05:00 22,5 C 91 % 1016,5 hPa 0,0 mm 0,0 km/h (0 Bft) N 0,00 h 0,000 mm 0 W/m 21,0 C 22,5 C 0,0 km/h (0 Bft)
17/07/2022 06:00 22,3 C 91 % 1016,8 hPa 0,0 mm 0,0 km/h (0 Bft) N 0,00 h 0,000 mm 15 W/m 20,8 C 22,3 C 0,0 km/h (0 Bft)
17/07/2022 07:00 23,0 C 91 % 1017,1 hPa 0,0 mm 0,0 km/h (0 Bft) N 0,00 h 0,000 mm 40 W/m 21,5 C 23,0 C 0,0 km/h (0 Bft)
17/07/2022 08:00 25,1 C 85 % 1017,5 hPa 0,0 mm 0,1 km/h (0 Bft) E-SE 0,03 h 0,025 mm 95 W/m 22,4 C 25,1 C 0,5 km/h (0 Bft)
17/07/2022 09:00 27,7 C 76 % 1017,8 hPa 0,0 mm 1,0 km/h (0 Bft) E-SE 1,00 h 0,051 mm 422 W/m 22,9 C 27,7 C 3,3 km/h (1 Bft)
17/07/2022 10:00 30,4 C 65 % 1017,8 hPa 0,0 mm 1,8 km/h (1 Bft) E 1,00 h 0,279 mm 579 W/m 23,0 C 30,4 C 5,5 km/h (1 Bft)
17/07/2022 11:00 32,8 C 48 % 1018,4 hPa 0,0 mm 1,7 km/h (1 Bft) E 1,00 h 0,406 mm 705 W/m 20,3 C 32,8 C 5,7 km/h (1 Bft)
17/07/2022 12:00 33,9 C 38 % 1018,5 hPa 0,0 mm 1,6 km/h (1 Bft) E 1,00 h 0,508 mm 783 W/m 17,6 C 33,9 C 5,5 km/h (1 Bft)
17/07/2022 13:00 35,0 C 36 % 1018,4 hPa 0,0 mm 1,7 km/h (1 Bft) E 1,00 h 0,559 mm 817 W/m 17,6 C 35,0 C 5,8 km/h (2 Bft)
17/07/2022 14:00 35,5 C 34 % 1018,4 hPa 0,0 mm 2,1 km/h (1 Bft) E 1,00 h 0,610 mm 835 W/m 17,3 C 35,5 C 6,1 km/h (2 Bft)
17/07/2022 15:00 34,9 C 34 % 1018,4 hPa 0,0 mm 1,6 km/h (1 Bft) N-NE 0,68 h 0,635 mm 572 W/m 16,6 C 34,9 C 5,0 km/h (1 Bft)
17/07/2022 16:00 33,1 C 37 % 1018,3 hPa 0,0 mm 0,0 km/h (0 Bft) N 0,00 h 0,432 mm 164 W/m 16,4 C 33,1 C 0,5 km/h (0 Bft)
17/07/2022 17:00 31,5 C 41 % 1018,3 hPa 0,0 mm 0,0 km/h (0 Bft) N 0,00 h 0,127 mm 94 W/m 16,6 C 31,5 C 0,0 km/h (0 Bft)
17/07/2022 18:00 31,0 C 43 % 1017,9 hPa 0,0 mm 0,0 km/h (0 Bft) N 0,00 h 0,076 mm 61 W/m 17,1 C 31,0 C 0,0 km/h (0 Bft)
17/07/2022 19:00 31,4 C 45 % 1017,5 hPa 0,0 mm 0,0 km/h (0 Bft) NE 0,70 h 0,051 mm 191 W/m 17,9 C 31,4 C 0,2 km/h (0 Bft)
17/07/2022 20:00 32,0 C 45 % 1017,2 hPa 0,0 mm 0,0 km/h (0 Bft) N 0,03 h 0,152 mm 39 W/m 18,5 C 32,0 C 0,0 km/h (0 Bft)
17/07/2022 21:00 30,2 C 49 % 1017,3 hPa 0,0 mm 0,0 km/h (0 Bft) N 0,00 h 0,051 mm 6 W/m 18,3 C 30,2 C 0,0 km/h (0 Bft)
17/07/2022 22:00 28,8 C 56 % 1017,8 hPa 0,0 mm 0,0 km/h (0 Bft) N 0,00 h 0,025 mm 0 W/m 19,2 C 28,8 C 0,0 km/h (0 Bft)
17/07/2022 23:00 28,0 C 61 % 1018,1 hPa 0,0 mm 0,0 km/h (0 Bft) N 0,00 h 0,051 mm 0 W/m 19,6 C 28,0 C 0,0 km/h (0 Bft)
Min-Date _ 11/07/22 17/07/22 15/07/22 - 11/07/22 - - - - 11/07/22 11/07/22 11/07/22
_ Min-Heure 06:19 15:41 20:30 - 00:00 - - - - 15:23 06:19 00:00
Minimum _ 20,4 C 32 % 1012,6 hPa - 0,0 km/h (0 Bft) - - - - 13,8 C 20,4 C 0,0 km/h (0 Bft)
Max-Date _ 17/07/22 17/07/22 13/07/22 11/07/22 11/07/22 - 11/07/22 17/07/22 16/07/22 16/07/22 17/07/22 14/07/22
_ Max-Heure 14:15 04:55 12:30 00:00 12:08 - 18:32 15:00 15:01 15:13 14:15 14:44
Maximum _ 35,7 C 92 % 1021,7 hPa 0,0 mm 11,3 km/h
E (2 Bft)
- 0,07 h 0,635 mm 997 W/m 24,5 C 35,7 C 20,9 km/h
S (4 Bft)
Moyenne _ 26,9 C 68 % 1016,9 hPa #0,0 mm 1,0 km/h (0 Bft) E #64:30 h #31,125 mm 377 W/m 19,9 C 26,9 C 2,8 km/h (1 Bft)
Roquefort les pins